Time;durP1;ratioP1;P1;durP2;ratioP2;P2;SDS_P1;SDS_P2;PMS_P1;PMS_P2;Temp;Humidity;BMP_temperature;BMP_pressure;BME280_temperature;BME280_humidity;BME280_pressure;Samples;Min_cycle;Max_cycle;Signal;HPM_P1;HPM_P2
2023/10/11 00:15:56;;;;;;;32.58;22.65;;;18.70;99.90;;;;;;4593198;19;20010;-69
2023/10/11 00:17:32;;;;;;;34.88;24.75;;;18.70;99.90;;;;;;4594185;19;20089;-70
2023/10/11 00:19:09;;;;;;;32.72;23.77;;;18.70;99.90;;;;;;4593129;19;20005;-69
2023/10/11 00:20:52;;;;;;;34.40;24.10;;;18.70;99.90;;;;;;4594235;19;20069;-69
2023/10/11 00:22:28;;;;;;;33.63;24.30;;;18.70;99.90;;;;;;4594532;19;20002;-69
2023/10/11 00:24:02;;;;;;;31.30;22.50;;;18.70;99.90;;;;;;4593730;19;20070;-69
2023/10/11 00:25:36;;;;;;;31.00;22.40;;;18.70;99.90;;;;;;4590868;19;20424;-70
2023/10/11 00:27:12;;;;;;;32.17;23.08;;;18.60;99.90;;;;;;4593244;19;20291;-69
2023/10/11 00:28:47;;;;;;;31.17;23.30;;;18.70;99.90;;;;;;4594056;19;20029;-69
2023/10/11 00:30:21;;;;;;;31.83;22.85;;;18.70;99.90;;;;;;4594300;19;19998;-69
2023/10/11 00:31:57;;;;;;;30.60;24.05;;;18.70;99.90;;;;;;4594102;19;20006;-69
2023/10/11 00:33:33;;;;;;;30.52;22.67;;;18.70;99.90;;;;;;4593844;19;20303;-69
2023/10/11 00:35:10;;;;;;;34.97;24.23;;;18.70;99.90;;;;;;4592020;19;20002;-70
2023/10/11 00:36:49;;;;;;;33.63;22.85;;;18.70;99.90;;;;;;4592923;19;20006;-69
2023/10/11 00:38:27;;;;;;;31.33;23.42;;;18.70;99.90;;;;;;4593042;19;20003;-69
2023/10/11 00:40:02;;;;;;;35.90;24.58;;;18.60;99.90;;;;;;4593863;19;20016;-69
2023/10/11 00:41:40;;;;;;;32.45;23.38;;;18.60;99.90;;;;;;4593824;19;20016;-69
2023/10/11 00:43:21;;;;;;;33.15;23.35;;;18.70;99.90;;;;;;4594150;19;20421;-69
2023/10/11 00:44:55;;;;;;;32.97;23.40;;;18.70;99.90;;;;;;4591869;19;20334;-69
2023/10/11 00:46:50;;;;;;;31.13;23.10;;;18.70;99.90;;;;;;4593856;19;20010;-69
2023/10/11 00:48:25;;;;;;;34.03;22.63;;;18.60;99.90;;;;;;4592243;19;20013;-69
2023/10/11 00:49:58;;;;;;;32.95;23.10;;;18.60;99.90;;;;;;4591513;19;20025;-69
2023/10/11 00:51:36;;;;;;;31.10;24.13;;;18.70;99.90;;;;;;4593184;19;20006;-69
2023/10/11 00:53:10;;;;;;;33.17;24.27;;;18.60;99.90;;;;;;4592269;19;20006;-69
2023/10/11 00:54:46;;;;;;;32.83;23.35;;;18.70;99.90;;;;;;4592681;19;20007;-69
2023/10/11 00:56:21;;;;;;;33.53;23.95;;;18.60;99.90;;;;;;4593526;19;20021;-69
2023/10/11 00:57:59;;;;;;;34.50;25.08;;;18.60;99.90;;;;;;4593021;19;20009;-69
2023/10/11 00:59:33;;;;;;;32.95;23.90;;;18.60;99.90;;;;;;4593470;19;20014;-69
2023/10/11 01:01:10;;;;;;;32.55;24.52;;;18.60;99.90;;;;;;4592369;19;20013;-69
2023/10/11 01:02:47;;;;;;;31.45;22.95;;;18.60;99.90;;;;;;4593058;19;20025;-69
2023/10/11 01:04:37;;;;;;;32.10;23.75;;;18.70;99.90;;;;;;4593253;19;20387;-69
2023/10/11 01:06:13;;;;;;;32.67;24.08;;;18.60;99.90;;;;;;4591730;19;20074;-69
2023/10/11 01:07:52;;;;;;;32.40;24.05;;;18.60;99.90;;;;;;4592876;19;20429;-69
2023/10/11 01:09:28;;;;;;;32.75;24.23;;;18.60;99.90;;;;;;4592182;19;20006;-69
2023/10/11 01:11:13;;;;;;;31.02;23.33;;;18.60;99.90;;;;;;4593269;19;20012;-69
2023/10/11 01:12:48;;;;;;;30.77;21.85;;;18.60;99.90;;;;;;4591915;19;20006;-69
2023/10/11 01:14:25;;;;;;;33.40;23.98;;;18.60;99.90;;;;;;4592922;19;20019;-69
2023/10/11 01:16:05;;;;;;;35.53;25.13;;;18.60;99.90;;;;;;4593141;19;20028;-70
2023/10/11 01:17:39;;;;;;;34.55;24.60;;;18.60;99.90;;;;;;4592946;19;20006;-69
2023/10/11 01:19:15;;;;;;;32.15;23.05;;;18.60;99.90;;;;;;4591696;19;20022;-70
2023/10/11 01:20:51;;;;;;;35.10;24.40;;;18.60;99.90;;;;;;4593002;19;20429;-69
2023/10/11 01:22:26;;;;;;;34.38;25.45;;;18.60;99.90;;;;;;4592825;19;20010;-69
2023/10/11 01:24:01;;;;;;;34.75;24.52;;;18.60;99.90;;;;;;4591862;19;20001;-69
2023/10/11 01:25:37;;;;;;;33.53;25.45;;;18.60;99.90;;;;;;4591711;19;20006;-69
2023/10/11 01:27:13;;;;;;;32.22;24.38;;;18.60;99.90;;;;;;4592691;19;20017;-70
2023/10/11 01:28:48;;;;;;;33.78;24.38;;;18.60;99.90;;;;;;4591568;19;20013;-69
2023/10/11 01:30:27;;;;;;;32.58;23.85;;;18.70;99.90;;;;;;4592430;19;20018;-69
2023/10/11 01:32:02;;;;;;;31.73;23.48;;;18.60;99.90;;;;;;4591520;19;20007;-69
2023/10/11 01:33:37;;;;;;;33.85;23.08;;;18.60;99.90;;;;;;4592593;19;20022;-69
2023/10/11 01:35:14;;;;;;;32.10;22.48;;;18.60;99.90;;;;;;4592013;19;20006;-69
2023/10/11 01:36:47;;;;;;;29.83;22.20;;;18.60;99.90;;;;;;4591660;19;20040;-69
2023/10/11 01:38:21;;;;;;;32.95;23.70;;;18.60;99.90;;;;;;4591254;19;20338;-69
2023/10/11 01:39:56;;;;;;;28.98;22.13;;;18.60;99.90;;;;;;4592296;19;20431;-69
2023/10/11 01:41:31;;;;;;;27.70;21.52;;;18.60;99.90;;;;;;4591812;19;20003;-70
2023/10/11 01:43:04;;;;;;;30.75;23.17;;;18.60;99.90;;;;;;4592026;19;20002;-69
2023/10/11 01:44:40;;;;;;;36.42;23.52;;;18.60;99.90;;;;;;4591724;19;20422;-69
2023/10/11 01:46:26;;;;;;;30.02;22.10;;;18.60;99.90;;;;;;4591711;19;20069;-69
2023/10/11 01:48:03;;;;;;;33.78;23.67;;;18.60;99.90;;;;;;4590436;19;20331;-69
2023/10/11 01:49:40;;;;;;;27.95;21.52;;;18.60;99.90;;;;;;4590592;19;20070;-70
2023/10/11 01:51:21;;;;;;;31.20;22.70;;;18.60;99.90;;;;;;4591507;19;20019;-69
2023/10/11 01:52:58;;;;;;;32.80;22.10;;;18.60;99.90;;;;;;4590589;19;20014;-70
2023/10/11 01:54:34;;;;;;;33.22;22.55;;;18.60;99.90;;;;;;4590985;19;20311;-69
2023/10/11 01:56:09;;;;;;;30.65;21.67;;;18.60;99.90;;;;;;4591860;19;20002;-69
2023/10/11 01:57:45;;;;;;;29.27;21.83;;;18.60;99.90;;;;;;4591581;19;20006;-70
2023/10/11 01:59:22;;;;;;;32.83;23.70;;;18.60;99.90;;;;;;4591887;19;20010;-69
2023/10/11 02:00:56;;;;;;;33.95;23.25;;;18.60;99.90;;;;;;4591524;19;20010;-69
2023/10/11 02:02:32;;;;;;;33.13;23.00;;;18.60;99.90;;;;;;4590122;19;20015;-69
2023/10/11 02:04:20;;;;;;;30.65;23.27;;;18.60;99.90;;;;;;4591385;19;20013;-69
2023/10/11 02:05:55;;;;;;;31.25;23.40;;;18.60;99.90;;;;;;4591373;19;20006;-69
2023/10/11 02:07:31;;;;;;;33.33;23.67;;;18.60;99.90;;;;;;4591414;19;20003;-69
2023/10/11 02:09:09;;;;;;;33.90;23.15;;;18.60;99.90;;;;;;4591482;19;20469;-69
2023/10/11 02:10:44;;;;;;;29.65;22.45;;;18.60;99.90;;;;;;4591389;19;20016;-69
2023/10/11 02:12:18;;;;;;;31.02;23.00;;;18.60;99.90;;;;;;4591639;19;20013;-69
2023/10/11 02:13:54;;;;;;;33.17;23.17;;;18.60;99.90;;;;;;4591369;19;20011;-70
2023/10/11 02:15:28;;;;;;;28.42;21.83;;;18.60;99.90;;;;;;4589977;19;20025;-70
2023/10/11 02:17:04;;;;;;;31.05;22.77;;;18.60;99.90;;;;;;4591093;19;20031;-69
2023/10/11 02:18:42;;;;;;;30.38;22.83;;;18.60;99.90;;;;;;4589050;19;20007;-69
2023/10/11 02:20:20;;;;;;;30.17;21.38;;;18.60;99.90;;;;;;4589737;19;20355;-69
2023/10/11 02:21:55;;;;;;;31.27;22.15;;;18.60;99.90;;;;;;4590050;19;20006;-69
2023/10/11 02:23:37;;;;;;;30.63;21.77;;;18.60;99.90;;;;;;4590185;19;20098;-69
2023/10/11 02:25:15;;;;;;;27.27;22.35;;;18.60;99.90;;;;;;4588875;19;20039;-69
2023/10/11 02:26:54;;;;;;;27.10;20.65;;;18.60;99.90;;;;;;4590695;19;20007;-69
2023/10/11 02:28:31;;;;;;;29.83;21.95;;;18.60;99.90;;;;;;4589786;19;20331;-69
2023/10/11 02:30:07;;;;;;;30.27;21.17;;;18.60;99.90;;;;;;4590778;19;19999;-70
2023/10/11 02:31:42;;;;;;;27.90;20.52;;;18.60;99.90;;;;;;4591113;19;20468;-69
2023/10/11 02:33:20;;;;;;;28.48;21.50;;;18.60;99.90;;;;;;4590960;19;20011;-70
2023/10/11 02:34:55;;;;;;;27.73;20.95;;;18.60;99.90;;;;;;4589293;19;20085;-69
2023/10/11 02:36:34;;;;;;;25.92;20.80;;;18.60;99.90;;;;;;4590858;19;19999;-69
2023/10/11 02:38:10;;;;;;;30.15;21.58;;;18.60;99.90;;;;;;4591181;19;20010;-69
2023/10/11 02:39:44;;;;;;;28.40;20.77;;;18.60;99.90;;;;;;4591539;19;19999;-70
2023/10/11 02:41:24;;;;;;;26.42;19.67;;;18.60;99.90;;;;;;4591455;19;20062;-69
2023/10/11 02:43:03;;;;;;;26.17;19.98;;;18.60;99.90;;;;;;4590462;19;20007;-69
2023/10/11 02:44:39;;;;;;;25.13;19.08;;;18.60;99.90;;;;;;4591122;19;20426;-69
2023/10/11 02:46:13;;;;;;;26.88;19.85;;;18.60;99.90;;;;;;4590106;19;20007;-69
2023/10/11 02:47:58;;;;;;;27.92;20.10;;;18.60;99.90;;;;;;4590475;19;20426;-69
2023/10/11 02:49:33;;;;;;;25.48;18.58;;;18.60;99.90;;;;;;4596025;19;19999;-69
2023/10/11 02:51:14;;;;;;;25.20;18.95;;;18.60;99.90;;;;;;4596328;19;20006;-69
2023/10/11 02:52:58;;;;;;;;;;;18.60;99.90;;;;;;4596994;19;20098;-69
2023/10/11 02:54:46;;;;;;;26.20;18.83;;;18.50;99.90;;;;;;4595981;19;19918;-70
2023/10/11 02:56:24;;;;;;;25.35;19.13;;;18.60;99.90;;;;;;4596245;19;20013;-69
2023/10/11 02:58:12;;;;;;;22.20;18.67;;;18.50;99.90;;;;;;4594415;19;20024;-69
2023/10/11 02:59:50;;;;;;;25.45;18.95;;;18.60;99.90;;;;;;4595823;19;20019;-70
2023/10/11 03:01:31;;;;;;;26.33;19.75;;;18.60;99.90;;;;;;4594790;19;20006;-69
2023/10/11 03:03:10;;;;;;;24.85;18.75;;;18.50;99.90;;;;;;4594884;19;20010;-70
2023/10/11 03:04:45;;;;;;;24.08;18.77;;;18.50;99.90;;;;;;4595033;19;20018;-69
2023/10/11 03:06:20;;;;;;;25.50;19.42;;;18.60;99.90;;;;;;4595632;19;20074;-69
2023/10/11 03:08:19;;;;;;;27.40;19.83;;;18.50;99.90;;;;;;4595762;19;20434;-70
2023/10/11 03:09:54;;;;;;;27.95;19.27;;;18.50;99.90;;;;;;4594337;19;20002;-69
2023/10/11 03:11:29;;;;;;;25.80;18.80;;;18.50;99.90;;;;;;4595177;19;20003;-69
2023/10/11 03:13:05;;;;;;;23.55;18.00;;;18.50;99.90;;;;;;4594386;19;20029;-70
2023/10/11 03:14:41;;;;;;;23.55;17.75;;;18.60;99.90;;;;;;4594652;19;20010;-70
2023/10/11 03:16:18;;;;;;;24.10;18.13;;;18.60;99.90;;;;;;4594327;19;20019;-70
2023/10/11 03:17:53;;;;;;;24.35;18.70;;;18.50;99.90;;;;;;4594948;19;20022;-70
2023/10/11 03:19:27;;;;;;;22.48;17.60;;;18.60;99.90;;;;;;4594441;19;20035;-69
2023/10/11 03:21:15;;;;;;;25.65;18.65;;;18.60;99.90;;;;;;4595353;19;20418;-69
2023/10/11 03:22:53;;;;;;;26.35;19.33;;;18.50;99.90;;;;;;4594252;19;20070;-69
2023/10/11 03:24:33;;;;;;;22.85;17.85;;;18.50;99.90;;;;;;4594942;19;20005;-69
2023/10/11 03:26:39;;;;;;;23.20;17.70;;;18.60;99.90;;;;;;4595670;19;20444;-70
2023/10/11 03:28:14;;;;;;;26.20;18.67;;;18.60;99.90;;;;;;4594297;19;20003;-69
2023/10/11 03:29:48;;;;;;;24.63;17.83;;;18.50;99.90;;;;;;4595606;19;20002;-69
2023/10/11 03:31:22;;;;;;;24.55;18.00;;;18.50;99.90;;;;;;4595142;19;20341;-69
2023/10/11 03:32:58;;;;;;;22.10;16.83;;;18.60;99.90;;;;;;4595555;19;20467;-69
2023/10/11 03:34:34;;;;;;;23.77;17.33;;;18.60;99.90;;;;;;4595141;19;20003;-69
2023/10/11 03:36:18;;;;;;;24.25;18.67;;;18.50;99.90;;;;;;4595039;19;20041;-69
2023/10/11 03:37:59;;;;;;;25.27;18.80;;;18.50;99.90;;;;;;4595195;19;20006;-69
2023/10/11 03:41:17;;;;;;;24.75;18.08;;;18.50;99.90;;;;;;4595028;19;19998;-69
2023/10/11 03:42:59;;;;;;;23.15;18.02;;;18.50;99.90;;;;;;4595148;19;20006;-70
2023/10/11 03:44:41;;;;;;;23.40;17.83;;;18.50;99.90;;;;;;4593397;19;20032;-69
2023/10/11 03:46:15;;;;;;;23.67;16.85;;;18.60;99.90;;;;;;4595010;19;20011;-69
2023/10/11 03:47:52;;;;;;;26.52;17.95;;;18.70;99.90;;;;;;4595024;19;20006;-69
2023/10/11 03:51:00;;;;;;;24.15;17.73;;;18.80;99.90;;;;;;4595125;19;20006;-69
2023/10/11 03:52:40;;;;;;;25.00;18.52;;;18.90;99.90;;;;;;4594762;19;20324;-70
2023/10/11 03:54:25;;;;;;;23.30;17.65;;;19.00;99.90;;;;;;4593496;19;20131;-69
2023/10/11 03:56:01;;;;;;;22.33;17.48;;;19.10;99.90;;;;;;4594610;19;20437;-69
2023/10/11 03:57:40;;;;;;;23.30;18.50;;;19.20;99.90;;;;;;4595060;19;20002;-70
2023/10/11 03:59:19;;;;;;;24.05;17.67;;;19.20;99.90;;;;;;4593387;19;20077;-69
2023/10/11 04:00:53;;;;;;;25.50;19.02;;;19.30;99.90;;;;;;4593625;19;20305;-69
2023/10/11 04:02:29;;;;;;;22.95;18.00;;;19.30;99.90;;;;;;4594718;19;20007;-69
2023/10/11 04:04:05;;;;;;;22.05;16.02;;;19.40;99.90;;;;;;4594714;19;20002;-70
2023/10/11 04:05:40;;;;;;;23.90;17.80;;;19.40;99.90;;;;;;4593598;19;20015;-69
2023/10/11 04:07:22;;;;;;;24.60;18.38;;;19.50;99.90;;;;;;4594638;19;20432;-69
2023/10/11 04:09:00;;;;;;;23.00;17.55;;;19.50;99.90;;;;;;4594686;19;20007;-69
2023/10/11 04:10:46;;;;;;;;;;;19.60;99.90;;;;;;4594119;19;20014;-69
2023/10/11 04:12:24;;;;;;;21.67;16.52;;;19.60;99.90;;;;;;4594286;19;19926;-69
2023/10/11 04:13:59;;;;;;;21.88;16.23;;;19.60;99.90;;;;;;4593235;19;20070;-69
2023/10/11 04:15:32;;;;;;;20.77;15.65;;;19.70;99.90;;;;;;4592759;19;20082;-71
2023/10/11 04:17:25;;;;;;;25.25;18.85;;;19.60;99.90;;;;;;4594337;19;20019;-70
2023/10/11 04:19:03;;;;;;;25.60;17.88;;;19.60;99.90;;;;;;4591778;19;20077;-70
2023/10/11 04:20:40;;;;;;;27.50;19.33;;;19.60;99.90;;;;;;4593988;19;20007;-70
2023/10/11 04:22:35;;;;;;;22.98;17.25;;;19.70;99.90;;;;;;4594278;19;20003;-69
2023/10/11 04:29:06;;;;;;;20.52;16.23;;;19.50;99.90;;;;;;4591920;19;19998;-69
2023/10/11 04:30:44;;;;;;;23.38;17.17;;;19.50;99.90;;;;;;4593965;19;20009;-69
2023/10/11 04:34:16;;;;;;;21.83;16.58;;;19.40;99.90;;;;;;4592925;19;20005;-69
2023/10/11 04:36:02;;;;;;;21.25;17.58;;;19.40;99.90;;;;;;4593762;19;20037;-69
2023/10/11 04:37:44;;;;;;;20.02;16.20;;;19.40;99.90;;;;;;4592474;19;20002;-69
2023/10/11 04:39:27;;;;;;;21.70;17.15;;;19.40;99.90;;;;;;4593720;19;20024;-69
2023/10/11 04:41:02;;;;;;;21.50;16.83;;;19.40;99.90;;;;;;4593888;19;20070;-69
2023/10/11 04:42:38;;;;;;;21.25;16.48;;;19.40;99.90;;;;;;4592407;19;20346;-69
2023/10/11 04:44:17;;;;;;;21.65;17.23;;;19.40;99.90;;;;;;4593800;19;20009;-69
2023/10/11 04:45:54;;;;;;;21.30;16.70;;;19.40;99.90;;;;;;4593810;19;20429;-69
2023/10/11 04:47:50;;;;;;;19.67;15.13;;;19.40;99.90;;;;;;4592477;19;20006;-69
2023/10/11 04:49:30;;;;;;;20.23;16.02;;;19.30;99.90;;;;;;4594036;19;20028;-69
2023/10/11 04:51:06;;;;;;;21.35;16.60;;;19.40;99.90;;;;;;4593837;19;20006;-69
2023/10/11 04:52:46;;;;;;;20.90;15.93;;;19.40;99.90;;;;;;4592406;19;20037;-69
2023/10/11 04:54:37;;;;;;;20.67;16.90;;;19.40;99.90;;;;;;4593365;19;20011;-69
2023/10/11 04:58:21;;;;;;;20.70;16.02;;;19.60;99.90;;;;;;4593154;19;20014;-69
2023/10/11 05:00:00;;;;;;;21.00;16.50;;;19.70;99.90;;;;;;4593933;19;20006;-69
2023/10/11 05:02:18;;;;;;;20.77;16.45;;;19.70;99.90;;;;;;4593551;19;20003;-69
2023/10/11 05:03:39;;;;;;;21.48;16.40;;;19.80;99.90;;;;;;4591640;19;20445;-69
2023/10/11 05:05:19;;;;;;;19.75;15.40;;;19.80;99.90;;;;;;4591293;19;20010;-69
2023/10/11 05:06:55;;;;;;;20.70;15.75;;;19.90;99.90;;;;;;4592343;19;20456;-69
2023/10/11 05:08:51;;;;;;;19.40;14.80;;;20.00;99.90;;;;;;4592302;19;20465;-69
2023/10/11 05:13:42;;;;;;;18.55;15.95;;;20.10;99.90;;;;;;4593209;19;20033;-69
2023/10/11 05:15:20;;;;;;;17.42;14.13;;;20.20;99.90;;;;;;4592048;19;20014;-70
2023/10/11 05:17:18;;;;;;;17.05;13.38;;;20.20;99.90;;;;;;4591770;19;20023;-69
2023/10/11 05:18:54;;;;;;;16.85;12.70;;;20.20;99.90;;;;;;4591035;19;19998;-69
2023/10/11 05:20:57;;;;;;;17.83;14.52;;;20.20;99.90;;;;;;4593082;19;20314;-69
2023/10/11 05:22:48;;;;;;;17.90;13.50;;;20.30;99.90;;;;;;4592792;19;20011;-69
2023/10/11 05:24:44;;;;;;;15.82;13.18;;;20.20;99.90;;;;;;4592827;19;20007;-69
2023/10/11 05:30:13;;;;;;;15.07;12.45;;;20.20;99.90;;;;;;4593168;19;20007;-68
2023/10/11 05:33:57;;;;;;;17.05;13.75;;;20.20;99.90;;;;;;4593148;19;20011;-69
2023/10/11 05:50:55;;;;;;;15.77;12.77;;;19.90;99.90;;;;;;4592566;19;20435;-69
2023/10/11 05:52:31;;;;;;;17.95;13.13;;;19.90;99.90;;;;;;4592781;19;20010;-69
2023/10/11 05:54:05;;;;;;;15.38;13.07;;;19.80;99.90;;;;;;4592458;19;20025;-69
2023/10/11 05:55:39;;;;;;;14.38;12.15;;;19.80;99.90;;;;;;4591681;19;20411;-69
2023/10/11 05:57:15;;;;;;;15.25;12.60;;;19.80;99.90;;;;;;4591044;19;20396;-69
2023/10/11 05:58:56;;;;;;;14.77;11.73;;;19.80;99.90;;;;;;4591253;19;20468;-69
2023/10/11 06:00:34;;;;;;;17.27;12.57;;;19.80;99.90;;;;;;4592660;19;20007;-69
2023/10/11 06:02:18;;;;;;;14.45;12.05;;;19.70;99.90;;;;;;4592035;19;20012;-69
2023/10/11 06:03:55;;;;;;;13.35;11.45;;;19.70;99.90;;;;;;4592056;19;20005;-69
2023/10/11 06:05:39;;;;;;;15.48;11.73;;;19.70;99.90;;;;;;4589364;19;20028;-69
2023/10/11 06:07:15;;;;;;;14.95;12.32;;;19.70;99.90;;;;;;4591516;19;20007;-69
2023/10/11 06:08:52;;;;;;;14.73;11.32;;;19.70;99.90;;;;;;4591869;19;20025;-69
2023/10/11 06:10:29;;;;;;;12.75;10.95;;;19.70;99.90;;;;;;4592002;19;20328;-69
2023/10/11 06:12:22;;;;;;;14.75;10.75;;;19.70;99.90;;;;;;4591727;19;20009;-69
2023/10/11 06:13:56;;;;;;;13.60;10.93;;;19.60;99.90;;;;;;4590289;19;20007;-69
2023/10/11 06:15:30;;;;;;;12.68;10.70;;;19.60;99.90;;;;;;4590118;19;20018;-69
2023/10/11 06:17:05;;;;;;;13.52;10.35;;;19.60;99.90;;;;;;4591495;19;20029;-69
2023/10/11 06:18:57;;;;;;;14.45;11.70;;;19.60;99.90;;;;;;4590719;19;20268;-69
2023/10/11 06:20:38;;;;;;;;;;;19.60;99.90;;;;;;4592689;19;20287;-69
2023/10/11 06:22:16;;;;;;;11.90;10.15;;;19.50;99.90;;;;;;4590967;19;19942;-69
2023/10/11 06:23:51;;;;;;;14.18;10.85;;;19.50;99.90;;;;;;4595309;19;20003;-69
2023/10/11 06:29:03;;;;;;;12.85;11.43;;;19.50;99.90;;;;;;4596934;19;20029;-69
2023/10/11 06:30:38;;;;;;;13.77;11.80;;;19.50;99.90;;;;;;4595280;19;20019;-69
2023/10/11 06:32:14;;;;;;;14.88;12.32;;;19.40;99.90;;;;;;4596565;19;20010;-69
2023/10/11 06:33:52;;;;;;;16.27;13.15;;;19.40;99.90;;;;;;4596384;19;20029;-69
2023/10/11 06:35:27;;;;;;;19.35;13.90;;;19.40;99.90;;;;;;4594926;19;19999;-69
2023/10/11 06:37:03;;;;;;;19.02;15.43;;;19.40;99.90;;;;;;4596839;19;20002;-68
2023/10/11 06:38:41;;;;;;;18.27;14.63;;;19.40;99.90;;;;;;4595642;19;20019;-69
2023/10/11 06:40:16;;;;;;;17.42;14.57;;;19.40;99.90;;;;;;4596617;19;20009;-69
2023/10/11 06:41:51;;;;;;;17.85;14.45;;;19.40;99.90;;;;;;4596736;19;20009;-69
2023/10/11 06:43:26;;;;;;;14.07;12.57;;;19.40;99.90;;;;;;4596564;19;20003;-69
2023/10/11 06:45:00;;;;;;;17.67;13.32;;;19.40;99.90;;;;;;4594287;19;20336;-69
2023/10/11 06:46:37;;;;;;;14.50;11.40;;;19.40;99.90;;;;;;4594929;19;20433;-69
2023/10/11 06:48:15;;;;;;;13.00;11.10;;;19.40;99.90;;;;;;4596108;19;20009;-69
2023/10/11 06:49:55;;;;;;;15.23;12.32;;;19.40;99.90;;;;;;4596154;19;20006;-69
2023/10/11 06:51:32;;;;;;;16.48;13.68;;;19.40;99.90;;;;;;4594915;19;20007;-69
2023/10/11 06:53:08;;;;;;;16.40;14.65;;;19.40;99.90;;;;;;4596143;19;20007;-69
2023/10/11 06:54:46;;;;;;;17.08;13.05;;;19.50;99.90;;;;;;4594226;19;20026;-69
2023/10/11 06:56:23;;;;;;;14.77;13.13;;;19.50;99.90;;;;;;4594521;19;20007;-71
2023/10/11 06:57:57;;;;;;;14.65;13.07;;;19.60;99.90;;;;;;4595656;19;20019;-69
2023/10/11 06:59:32;;;;;;;14.15;12.18;;;19.60;99.90;;;;;;4595899;19;20489;-69
2023/10/11 07:01:10;;;;;;;14.32;11.73;;;19.60;99.90;;;;;;4596274;19;20444;-69
2023/10/11 07:02:47;;;;;;;15.73;13.10;;;19.60;99.90;;;;;;4594537;19;20429;-70
2023/10/11 07:04:22;;;;;;;16.58;13.30;;;19.60;99.90;;;;;;4595373;19;20320;-70
2023/10/11 07:06:00;;;;;;;20.05;14.50;;;19.70;99.90;;;;;;4596166;19;20150;-69
2023/10/11 07:07:34;;;;;;;17.60;13.30;;;19.60;99.90;;;;;;4594520;19;20437;-70
2023/10/11 07:09:19;;;;;;;15.85;13.45;;;19.70;99.90;;;;;;4595732;19;20082;-70
2023/10/11 07:11:10;;;;;;;17.63;12.48;;;19.70;99.90;;;;;;4595772;19;20031;-70
2023/10/11 07:12:46;;;;;;;14.93;12.55;;;19.70;99.90;;;;;;4595776;19;20066;-70
2023/10/11 07:14:25;;;;;;;18.33;12.30;;;19.60;99.90;;;;;;4595554;19;20003;-70
2023/10/11 07:16:08;;;;;;;13.40;11.75;;;19.60;99.90;;;;;;4592538;19;20014;-69
2023/10/11 07:17:43;;;;;;;13.18;11.18;;;19.60;99.90;;;;;;4594367;19;20065;-70
2023/10/11 07:19:19;;;;;;;13.23;11.32;;;19.50;99.90;;;;;;4593902;19;20299;-70
2023/10/11 07:21:10;;;;;;;11.77;9.90;;;19.60;99.90;;;;;;4595908;19;20038;-69
2023/10/11 07:22:44;;;;;;;11.65;9.13;;;19.50;99.90;;;;;;4594179;19;20039;-70
2023/10/11 07:24:40;;;;;;;12.32;9.40;;;19.50;99.90;;;;;;4595275;19;20002;-69
2023/10/11 07:26:23;;;;;;;12.35;9.60;;;19.60;99.90;;;;;;4595753;19;20073;-70
2023/10/11 07:28:02;;;;;;;11.80;9.40;;;19.70;99.90;;;;;;4594112;19;20062;-70
2023/10/11 07:29:46;;;;;;;12.88;10.38;;;19.60;99.90;;;;;;4593909;19;20760;-70
2023/10/11 07:31:27;;;;;;;14.85;10.88;;;19.50;99.90;;;;;;4593964;19;20085;-70
2023/10/11 07:33:04;;;;;;;12.70;11.18;;;19.50;99.90;;;;;;4594273;19;20011;-70
2023/10/11 07:34:41;;;;;;;14.50;11.23;;;19.50;99.90;;;;;;4593645;19;20006;-70
2023/10/11 07:36:18;;;;;;;14.43;10.68;;;19.50;99.90;;;;;;4593878;19;20006;-70
2023/10/11 07:37:52;;;;;;;12.30;10.52;;;19.50;99.90;;;;;;4594916;19;20006;-70
2023/10/11 07:39:26;;;;;;;13.05;10.75;;;19.40;99.90;;;;;;4595420;19;20422;-69
2023/10/11 07:41:05;;;;;;;12.25;10.35;;;19.40;99.90;;;;;;4595075;19;20006;-70
2023/10/11 07:42:40;;;;;;;10.65;9.52;;;19.50;99.90;;;;;;4595357;19;19994;-69
2023/10/11 07:44:17;;;;;;;11.90;10.02;;;19.50;99.90;;;;;;4595386;19;20414;-69
2023/10/11 07:45:56;;;;;;;15.00;10.45;;;19.50;99.90;;;;;;4593697;19;20043;-69
2023/10/11 07:47:32;;;;;;;11.13;9.52;;;19.40;99.90;;;;;;4594685;19;20355;-69
2023/10/11 07:49:07;;;;;;;12.10;10.27;;;19.40;99.90;;;;;;4595004;19;20014;-70
2023/10/11 07:50:46;;;;;;;14.82;11.32;;;19.40;99.90;;;;;;4593719;19;20516;-69
2023/10/11 07:52:22;;;;;;;14.63;10.43;;;19.40;99.90;;;;;;4594900;19;20482;-70
2023/10/11 07:53:56;;;;;;;12.07;10.05;;;19.40;99.90;;;;;;4595146;19;20002;-70
2023/10/11 07:55:31;;;;;;;11.25;9.60;;;19.40;99.90;;;;;;4592238;19;20031;-69
2023/10/11 07:57:14;;;;;;;13.40;9.90;;;19.40;99.90;;;;;;4594523;19;20009;-69
2023/10/11 07:58:49;;;;;;;14.48;12.98;;;19.40;99.90;;;;;;4594226;19;20007;-69
2023/10/11 08:00:30;;;;;;;16.73;14.57;;;18.80;99.90;;;;;;4595130;19;20429;-69
2023/10/11 08:02:08;;;;;;;16.40;14.70;;;17.70;99.90;;;;;;4593723;19;20006;-69
2023/10/11 08:03:47;;;;;;;16.58;14.77;;;17.20;99.90;;;;;;4594378;19;20032;-69
2023/10/11 08:05:25;;;;;;;15.50;13.63;;;17.00;99.90;;;;;;4592113;19;20014;-69
2023/10/11 08:07:06;;;;;;;15.98;13.52;;;16.90;99.90;;;;;;4594384;19;20007;-69
2023/10/11 08:08:43;;;;;;;14.05;12.52;;;16.80;99.90;;;;;;4594767;19;20009;-69
2023/10/11 08:10:33;;;;;;;18.60;13.85;;;16.90;99.90;;;;;;4593360;19;20062;-69
2023/10/11 08:12:10;;;;;;;16.45;13.88;;;16.90;99.90;;;;;;4594525;19;19999;-69
2023/10/11 08:13:44;;;;;;;16.38;13.57;;;16.90;99.90;;;;;;4594513;19;20003;-69
2023/10/11 08:15:22;;;;;;;15.15;13.05;;;16.90;99.90;;;;;;4591918;19;20019;-70
2023/10/11 08:16:59;;;;;;;16.73;14.43;;;17.00;99.90;;;;;;4593477;19;20006;-70
2023/10/11 08:18:33;;;;;;;15.30;13.50;;;17.00;99.90;;;;;;4593461;19;20023;-70
2023/10/11 08:20:15;;;;;;;14.02;12.15;;;17.00;99.90;;;;;;4594334;19;20430;-69
2023/10/11 08:21:57;;;;;;;16.52;14.15;;;17.00;99.90;;;;;;4594256;19;20010;-69
2023/10/11 08:23:31;;;;;;;15.65;13.05;;;17.00;99.90;;;;;;4594596;19;20007;-70
2023/10/11 08:25:12;;;;;;;14.57;12.40;;;17.10;99.90;;;;;;4592008;19;20007;-69
2023/10/11 08:26:52;;;;;;;14.27;11.90;;;17.10;99.90;;;;;;4592888;19;20010;-69
2023/10/11 08:28:34;;;;;;;14.52;12.63;;;17.10;99.90;;;;;;4593851;19;20006;-69
2023/10/11 08:30:17;;;;;;;12.90;11.57;;;17.10;99.90;;;;;;4592765;19;20010;-69
2023/10/11 08:31:52;;;;;;;14.07;11.90;;;17.20;99.90;;;;;;4593931;19;20441;-69
2023/10/11 08:33:26;;;;;;;14.30;12.18;;;17.10;99.90;;;;;;4593998;19;19999;-69
2023/10/11 08:35:01;;;;;;;14.95;12.05;;;17.20;99.90;;;;;;4594021;19;20028;-69
2023/10/11 08:36:40;;;;;;;14.93;11.98;;;17.20;99.90;;;;;;4594036;19;20003;-69
2023/10/11 08:38:18;;;;;;;15.93;12.73;;;17.20;99.90;;;;;;4592270;19;20066;-69
2023/10/11 08:39:57;;;;;;;14.48;11.88;;;17.20;99.90;;;;;;4593899;19;20425;-73
2023/10/11 08:41:33;;;;;;;15.38;12.70;;;17.20;99.90;;;;;;4593868;19;20006;-69
2023/10/11 08:43:09;;;;;;;16.23;13.00;;;17.20;99.90;;;;;;4594145;19;20013;-69
2023/10/11 08:44:45;;;;;;;14.77;12.43;;;17.20;99.90;;;;;;4593724;19;20010;-69
2023/10/11 08:46:18;;;;;;;14.30;12.07;;;17.20;99.90;;;;;;4590159;19;20018;-69
2023/10/11 08:47:53;;;;;;;14.00;12.23;;;17.20;99.90;;;;;;4592330;19;20497;-69
2023/10/11 08:49:29;;;;;;;12.15;10.75;;;17.30;99.90;;;;;;4593448;19;20013;-71
2023/10/11 08:51:09;;;;;;;13.82;11.77;;;17.30;99.90;;;;;;4593608;19;20449;-69
2023/10/11 08:52:44;;;;;;;16.05;12.63;;;17.20;99.90;;;;;;4592366;19;20016;-69
2023/10/11 08:54:25;;;;;;;16.23;11.50;;;17.30;99.90;;;;;;4592214;19;20013;-69
2023/10/11 08:56:02;;;;;;;14.25;12.10;;;17.30;99.90;;;;;;4592370;19;20009;-69
2023/10/11 08:57:36;;;;;;;13.20;10.85;;;17.30;99.90;;;;;;4593299;19;20006;-69
2023/10/11 08:59:15;;;;;;;14.35;11.95;;;17.30;99.90;;;;;;4593214;19;20450;-69
2023/10/11 09:00:52;;;;;;;14.63;11.75;;;17.30;99.90;;;;;;4593836;19;20007;-69
2023/10/11 09:02:33;;;;;;;15.05;12.30;;;17.40;99.90;;;;;;4592448;19;20006;-69
2023/10/11 09:04:13;;;;;;;13.50;11.40;;;17.40;99.90;;;;;;4593257;19;20006;-69
2023/10/11 09:05:47;;;;;;;13.30;11.55;;;17.30;99.90;;;;;;4592185;19;20018;-69
2023/10/11 09:07:39;;;;;;;13.40;11.45;;;17.30;99.90;;;;;;4593639;19;19998;-69
2023/10/11 09:09:47;;;;;;;14.52;11.90;;;17.40;99.90;;;;;;4592321;19;20108;-69
2023/10/11 09:11:32;;;;;;;13.90;11.73;;;17.40;99.90;;;;;;4590759;19;20003;-69
2023/10/11 09:13:08;;;;;;;13.48;11.88;;;17.40;99.90;;;;;;4591073;19;20473;-68
2023/10/11 09:14:54;;;;;;;12.82;11.48;;;17.40;99.90;;;;;;4590268;19;20014;-69
2023/10/11 09:16:35;;;;;;;15.10;11.95;;;17.40;99.90;;;;;;4590783;19;20007;-69